createdAt,value
2022-09-28T00:01:32.892Z,51.83
2022-09-28T00:04:07.730Z,50.37
2022-09-28T00:06:35.494Z,50.62
2022-09-28T00:09:04.795Z,49.92
2022-09-28T00:11:34.768Z,50.17
2022-09-28T00:14:04.075Z,49.84
2022-09-28T00:16:39.228Z,49.81
2022-09-28T00:19:08.083Z,50.36
2022-09-28T00:21:37.825Z,49.79
2022-09-28T00:24:13.554Z,49.97
2022-09-28T00:26:41.374Z,50.13
2022-09-28T00:29:18.152Z,50.16
2022-09-28T00:31:48.257Z,49.95
2022-09-28T00:34:19.513Z,49.92
2022-09-28T00:36:48.326Z,50.19
2022-09-28T00:39:17.209Z,50.27
2022-09-28T00:41:46.303Z,50.32
2022-09-28T00:44:26.265Z,50.51
2022-09-28T00:47:03.342Z,50.26
2022-09-28T00:50:01.711Z,50.34
2022-09-28T00:52:41.864Z,50.64
2022-09-28T00:55:14.479Z,50.59
2022-09-28T00:57:46.627Z,50.24
2022-09-28T01:00:15.032Z,50.78
2022-09-28T01:02:44.311Z,50.95
2022-09-28T01:05:13.696Z,51.11
2022-09-28T01:07:43.279Z,51.37
2022-09-28T01:10:11.500Z,51.71
2022-09-28T01:12:39.048Z,51.86
2022-09-28T01:15:08.356Z,52.15
2022-09-28T01:17:50.108Z,52.05
2022-09-28T01:20:56.288Z,52.15
2022-09-28T01:23:30.966Z,52.35
2022-09-28T01:26:36.469Z,52.57
2022-09-28T01:29:32.298Z,52.61
2022-09-28T01:32:12.262Z,52.78
2022-09-28T01:34:55.181Z,52.98
2022-09-28T01:37:28.537Z,52.97
2022-09-28T01:39:59.401Z,53.10
2022-09-28T01:42:32.209Z,53.24
2022-09-28T01:45:07.775Z,53.19
2022-09-28T01:47:41.553Z,53.30
2022-09-28T01:50:18.734Z,53.00
2022-09-28T01:52:53.785Z,53.24
2022-09-28T01:55:26.754Z,52.90
2022-09-28T01:58:06.711Z,52.75
2022-09-28T02:00:36.684Z,52.88
2022-09-28T02:03:12.853Z,52.78
2022-09-28T02:05:51.643Z,52.84
2022-09-28T02:08:43.572Z,52.98
2022-09-28T02:11:16.921Z,53.02
2022-09-28T02:14:12.949Z,53.14
2022-09-28T02:16:43.874Z,53.41
2022-09-28T02:19:23.447Z,53.68
2022-09-28T02:22:03.663Z,53.35
2022-09-28T02:24:58.373Z,53.63
2022-09-28T02:27:44.258Z,53.68
2022-09-28T02:30:30.360Z,53.94
2022-09-28T02:33:39.272Z,54.24
2022-09-28T02:36:19.759Z,54.22
2022-09-28T02:38:57.129Z,54.53
2022-09-28T02:41:38.003Z,54.50
2022-09-28T02:44:58.560Z,54.45
2022-09-28T02:47:51.162Z,54.56
2022-09-28T02:50:19.592Z,55.04
2022-09-28T02:52:56.222Z,55.29
2022-09-28T02:55:33.168Z,55.31
2022-09-28T02:58:04.166Z,55.14
2022-09-28T03:00:38.601Z,54.71
2022-09-28T03:03:06.217Z,54.88
2022-09-28T03:05:53.452Z,55.06
2022-09-28T03:08:29.989Z,55.39
2022-09-28T03:11:08.169Z,55.81
2022-09-28T03:13:37.412Z,55.77
2022-09-28T03:16:12.162Z,56.49
2022-09-28T03:18:41.483Z,56.25
2022-09-28T03:21:11.150Z,56.49
2022-09-28T03:23:39.870Z,56.64
2022-09-28T03:26:14.486Z,56.79
2022-09-28T03:28:42.711Z,56.88
2022-09-28T03:31:15.852Z,56.92
2022-09-28T03:33:43.489Z,57.19
2022-09-28T03:36:11.171Z,57.20
2022-09-28T03:38:39.336Z,56.89
2022-09-28T03:41:10.610Z,56.99
2022-09-28T03:43:42.148Z,57.05
2022-09-28T03:46:10.785Z,57.25
2022-09-28T03:48:43.964Z,56.88
2022-09-28T03:51:13.462Z,57.05
2022-09-28T03:53:41.521Z,56.65
2022-09-28T03:56:16.615Z,56.68
2022-09-28T03:58:44.490Z,56.44
2022-09-28T04:01:17.603Z,56.26
2022-09-28T04:03:47.952Z,56.25
2022-09-28T04:06:16.300Z,56.14
2022-09-28T04:08:44.086Z,56.94
2022-09-28T04:11:12.118Z,56.87
2022-09-28T04:13:40.391Z,56.79
2022-09-28T04:16:12.600Z,56.98
2022-09-28T04:18:44.841Z,57.03
2022-09-28T04:21:22.675Z,57.22
2022-09-28T04:23:59.904Z,57.90
2022-09-28T04:26:28.798Z,57.96
2022-09-28T04:29:16.145Z,57.58
2022-09-28T04:31:53.554Z,57.65
2022-09-28T04:34:26.001Z,57.94
2022-09-28T04:36:54.164Z,57.80
2022-09-28T04:39:22.202Z,57.80
2022-09-28T04:41:54.078Z,57.81
2022-09-28T04:44:22.664Z,57.39
2022-09-28T04:46:56.582Z,56.88
2022-09-28T04:49:39.844Z,57.01
2022-09-28T04:52:17.211Z,57.18
2022-09-28T04:54:48.411Z,57.42
2022-09-28T04:57:19.935Z,57.46
2022-09-28T04:59:47.846Z,57.26
2022-09-28T05:02:15.973Z,57.28
2022-09-28T05:04:53.825Z,57.09
2022-09-28T05:07:38.597Z,57.25
2022-09-28T05:10:08.120Z,57.44
2022-09-28T05:12:38.058Z,57.01
2022-09-28T05:15:06.392Z,56.76
2022-09-28T05:17:34.287Z,56.90
2022-09-28T05:20:10.217Z,56.80
2022-09-28T05:22:37.966Z,56.44
2022-09-28T05:25:08.581Z,56.30
2022-09-28T05:27:47.640Z,56.25
2022-09-28T05:30:35.506Z,56.20
2022-09-28T05:33:24.660Z,56.91
2022-09-28T05:36:04.691Z,56.92
2022-09-28T05:38:33.292Z,56.79
2022-09-28T05:41:06.304Z,57.06
2022-09-28T05:43:34.850Z,57.23
2022-09-28T05:46:07.209Z,58.03
2022-09-28T05:48:38.262Z,58.09
2022-09-28T05:51:09.129Z,58.11
2022-09-28T05:53:37.072Z,58.39
2022-09-28T05:56:05.815Z,58.26
2022-09-28T05:58:35.901Z,58.52
2022-09-28T06:01:04.229Z,58.39
2022-09-28T06:03:32.610Z,58.67
2022-09-28T06:06:03.700Z,58.85
2022-09-28T06:08:33.306Z,58.61
2022-09-28T06:11:20.589Z,58.50
2022-09-28T06:13:48.261Z,58.34
2022-09-28T06:16:19.467Z,58.31
2022-09-28T06:18:47.003Z,58.69
2022-09-28T06:21:17.028Z,58.32
2022-09-28T06:23:49.438Z,58.34
2022-09-28T06:26:18.961Z,58.37
2022-09-28T06:28:52.996Z,58.55
2022-09-28T06:31:24.046Z,58.65
2022-09-28T06:33:52.442Z,58.92
2022-09-28T06:36:22.971Z,58.96
2022-09-28T06:38:50.839Z,58.98
2022-09-28T06:41:19.015Z,58.72
2022-09-28T06:43:48.487Z,59.18
2022-09-28T06:46:34.493Z,59.14
2022-09-28T06:49:19.800Z,59.10
2022-09-28T06:52:07.517Z,59.09
2022-09-28T06:55:04.365Z,58.68
2022-09-28T06:57:42.595Z,58.36
2022-09-28T07:00:11.523Z,58.07
2022-09-28T07:02:39.373Z,58.04
2022-09-28T07:05:19.674Z,61.15
2022-09-28T07:07:59.504Z,61.92
2022-09-28T07:10:58.023Z,59.63
2022-09-28T07:13:50.201Z,59.33
2022-09-28T07:16:25.692Z,57.09
2022-09-28T07:18:54.947Z,56.79
2022-09-28T07:21:29.588Z,56.92
2022-09-28T07:24:00.832Z,56.66
2022-09-28T07:27:00.513Z,57.09
2022-09-28T07:29:38.519Z,56.68
2022-09-28T07:32:24.003Z,56.58
2022-09-28T07:35:16.883Z,56.32
2022-09-28T07:37:50.238Z,56.13
2022-09-28T07:40:37.211Z,56.91
2022-09-28T07:43:06.535Z,55.52
2022-09-28T07:45:38.812Z,55.31
2022-09-28T07:48:07.789Z,54.74
2022-09-28T07:50:34.983Z,54.42
2022-09-28T07:53:22.600Z,54.22
2022-09-28T07:56:10.126Z,53.63
2022-09-28T07:58:56.226Z,53.74
2022-09-28T08:01:42.720Z,53.55
2022-09-28T08:04:14.168Z,53.71
2022-09-28T08:06:45.174Z,53.87
2022-09-28T08:09:13.893Z,53.78
2022-09-28T08:11:59.998Z,53.29
2022-09-28T08:14:37.872Z,53.67
2022-09-28T08:17:33.718Z,53.43
2022-09-28T08:20:25.188Z,53.08
2022-09-28T08:22:53.561Z,53.24
2022-09-28T08:25:21.590Z,53.02
2022-09-28T08:27:50.189Z,52.93
2022-09-28T08:30:18.276Z,52.18
2022-09-28T08:33:00.569Z,52.02
2022-09-28T08:35:42.843Z,52.03
2022-09-28T08:38:20.333Z,51.53
2022-09-28T08:41:49.413Z,51.20
2022-09-28T08:44:48.880Z,50.96
2022-09-28T08:48:12.260Z,50.59
2022-09-28T08:51:16.223Z,49.94
2022-09-28T08:53:48.471Z,49.98
2022-09-28T08:56:48.038Z,50.31
2022-09-28T08:59:23.308Z,49.99
2022-09-28T09:02:03.971Z,49.16
2022-09-28T09:04:34.592Z,48.69
2022-09-28T09:07:52.123Z,48.72
2022-09-28T09:10:34.242Z,48.97
2022-09-28T09:13:11.537Z,48.51
2022-09-28T09:15:57.759Z,48.31
2022-09-28T09:18:50.099Z,48.82
2022-09-28T09:21:50.185Z,49.18
2022-09-28T09:24:53.507Z,49.05
2022-09-28T09:27:21.681Z,48.52
2022-09-28T09:29:52.637Z,48.56
2022-09-28T09:32:53.852Z,48.71
2022-09-28T09:35:33.879Z,48.40
2022-09-28T09:38:22.906Z,48.74
2022-09-28T09:41:15.865Z,48.11
2022-09-28T09:44:06.454Z,48.32
2022-09-28T09:47:15.396Z,48.00
2022-09-28T09:50:05.553Z,48.08
2022-09-28T09:52:50.297Z,48.57
2022-09-28T09:55:42.439Z,48.11
2022-09-28T09:58:36.661Z,47.74
2022-09-28T10:01:31.421Z,48.50
2022-09-28T10:04:34.470Z,47.70
2022-09-28T10:07:35.241Z,48.66
2022-09-28T10:10:04.237Z,48.06
2022-09-28T10:12:45.635Z,48.06
2022-09-28T10:15:17.195Z,47.68
2022-09-28T10:18:09.866Z,47.63
2022-09-28T10:20:57.116Z,47.59
2022-09-28T10:23:58.004Z,47.59
2022-09-28T10:26:36.521Z,48.28
2022-09-28T10:29:13.589Z,47.63
2022-09-28T10:31:41.168Z,47.65
2022-09-28T10:34:25.359Z,47.21
2022-09-28T10:37:05.922Z,47.22
2022-09-28T10:39:55.047Z,46.93
2022-09-28T10:42:37.303Z,47.12
2022-09-28T10:45:32.748Z,47.35
2022-09-28T10:48:14.435Z,47.22
2022-09-28T10:51:18.103Z,47.20
2022-09-28T10:54:07.302Z,47.55
2022-09-28T10:56:46.817Z,47.31
2022-09-28T10:59:32.487Z,48.78
2022-09-28T11:02:36.743Z,47.41
2022-09-28T11:05:22.163Z,47.14
2022-09-28T11:07:52.603Z,46.55
2022-09-28T11:10:27.967Z,47.10
2022-09-28T11:13:01.216Z,46.44
2022-09-28T11:15:33.486Z,46.80
2022-09-28T11:18:32.688Z,46.42
2022-09-28T11:21:13.884Z,45.93
2022-09-28T11:24:19.096Z,45.93
2022-09-28T11:26:53.166Z,46.46
2022-09-28T11:29:34.201Z,45.97
2022-09-28T11:32:45.136Z,45.91
2022-09-28T11:35:37.281Z,46.20
2022-09-28T11:38:10.952Z,46.27
2022-09-28T11:41:28.611Z,46.06
2022-09-28T11:44:14.254Z,46.18
2022-09-28T11:47:21.505Z,46.41
2022-09-28T11:50:00.893Z,46.55
2022-09-28T11:52:35.481Z,46.96
2022-09-28T11:55:13.839Z,46.92
2022-09-28T11:57:45.510Z,47.33
2022-09-28T12:00:20.173Z,46.97
2022-09-28T12:02:57.242Z,46.43
2022-09-28T12:05:32.686Z,46.18
2022-09-28T12:08:17.834Z,45.91
2022-09-28T12:11:29.011Z,45.75
2022-09-28T12:14:22.888Z,45.70
2022-09-28T12:17:29.851Z,45.22
2022-09-28T12:20:32.068Z,44.84
2022-09-28T12:23:15.051Z,44.85
2022-09-28T12:25:59.846Z,45.07
2022-09-28T12:28:47.982Z,45.19
2022-09-28T12:31:25.230Z,45.23
2022-09-28T12:33:53.246Z,45.16
2022-09-28T12:36:30.736Z,45.33
2022-09-28T12:39:19.147Z,45.04
2022-09-28T12:42:30.257Z,44.97
2022-09-28T12:45:59.432Z,45.12
2022-09-28T12:50:07.227Z,44.63
2022-09-28T12:53:03.130Z,44.49
2022-09-28T12:55:58.359Z,44.52
2022-09-28T13:01:57.581Z,44.92
2022-09-28T13:05:07.542Z,45.04
2022-09-28T13:08:02.278Z,45.13
2022-09-28T13:11:07.833Z,45.18
2022-09-28T13:13:53.796Z,44.78
2022-09-28T13:16:46.621Z,44.36
2022-09-28T13:20:09.621Z,43.79
2022-09-28T13:22:50.852Z,43.27
2022-09-28T13:25:47.023Z,43.58
2022-09-28T13:28:47.507Z,43.10
2022-09-28T13:31:45.024Z,42.85
2022-09-28T13:34:21.033Z,42.61
2022-09-28T13:37:25.465Z,42.03
2022-09-28T13:40:00.311Z,42.25
2022-09-28T13:43:03.518Z,42.12
2022-09-28T13:45:48.226Z,41.90
2022-09-28T13:48:22.533Z,41.74
2022-09-28T13:51:25.044Z,41.69
2022-09-28T13:54:29.417Z,41.64
2022-09-28T13:57:27.146Z,41.54
2022-09-28T14:00:25.800Z,41.35
2022-09-28T14:03:16.043Z,40.56
2022-09-28T14:06:04.830Z,40.58
2022-09-28T14:08:39.750Z,40.54
2022-09-28T14:11:28.369Z,39.96
2022-09-28T14:14:06.426Z,40.21
2022-09-28T14:16:37.453Z,40.35
2022-09-28T14:22:43.243Z,40.38
2022-09-28T14:25:32.322Z,40.02
2022-09-28T14:28:54.969Z,39.74
2022-09-28T14:31:29.675Z,39.93
2022-09-28T14:34:04.002Z,39.43
2022-09-28T14:37:08.159Z,39.08
2022-09-28T14:39:57.347Z,38.99
2022-09-28T14:42:26.199Z,38.97
2022-09-28T14:45:06.219Z,38.96
2022-09-28T14:47:37.890Z,38.59
2022-09-28T14:50:25.623Z,37.43
2022-09-28T14:53:05.268Z,37.86
2022-09-28T14:55:41.232Z,37.49
2022-09-28T14:58:37.181Z,37.34
2022-09-28T15:01:14.934Z,37.54
2022-09-28T15:03:44.380Z,37.75
2022-09-28T15:06:20.019Z,37.61
2022-09-28T15:08:51.875Z,37.25
2022-09-28T15:11:25.667Z,36.90
2022-09-28T15:14:06.859Z,36.62
2022-09-28T15:16:34.521Z,36.82
2022-09-28T15:19:11.263Z,36.57
2022-09-28T15:21:42.611Z,36.75
2022-09-28T15:24:27.027Z,36.71
2022-09-28T15:26:55.305Z,36.90
2022-09-28T15:29:28.503Z,37.43
2022-09-28T15:31:56.872Z,37.27
2022-09-28T15:34:53.185Z,37.46
2022-09-28T15:37:40.286Z,37.56
2022-09-28T15:40:15.674Z,37.53
2022-09-28T15:42:45.629Z,37.41
2022-09-28T15:45:31.123Z,37.89
2022-09-28T15:48:18.416Z,37.41
2022-09-28T15:51:11.204Z,37.61
2022-09-28T15:53:58.709Z,37.49
2022-09-28T15:56:29.952Z,37.27
2022-09-28T15:59:16.997Z,37.30
2022-09-28T16:01:46.584Z,37.48
2022-09-28T16:04:43.104Z,37.36
2022-09-28T16:07:11.059Z,37.23
2022-09-28T16:10:06.517Z,37.35
2022-09-28T16:12:36.945Z,37.93
2022-09-28T16:15:29.607Z,37.58
2022-09-28T16:18:03.353Z,38.01
2022-09-28T16:20:38.281Z,37.92
2022-09-28T16:23:34.417Z,38.12
2022-09-28T16:26:03.411Z,37.95
2022-09-28T16:28:35.048Z,38.04
2022-09-28T16:31:08.171Z,38.27
2022-09-28T16:33:57.994Z,38.21
2022-09-28T16:36:39.799Z,38.61
2022-09-28T16:39:07.187Z,38.22
2022-09-28T16:41:34.948Z,38.59
2022-09-28T16:44:05.541Z,44.99
2022-09-28T16:46:38.503Z,39.45
2022-09-28T16:49:07.081Z,41.14
2022-09-28T16:51:34.600Z,39.49
2022-09-28T16:54:45.694Z,39.99
2022-09-28T16:57:15.543Z,39.77
2022-09-28T16:59:43.077Z,38.87
2022-09-28T17:05:08.325Z,38.82
2022-09-28T17:07:36.755Z,38.97
2022-09-28T17:10:41.216Z,39.28
2022-09-28T17:13:23.905Z,38.89
2022-09-28T17:15:52.205Z,38.59
2022-09-28T17:18:23.015Z,38.51
2022-09-28T17:20:54.519Z,38.57
2022-09-28T17:23:22.396Z,38.08
2022-09-28T17:25:50.294Z,38.09
2022-09-28T17:28:21.908Z,38.17
2022-09-28T17:30:49.792Z,37.98
2022-09-28T17:33:17.650Z,38.07
2022-09-28T17:35:46.062Z,38.42
2022-09-28T17:38:16.226Z,40.16
2022-09-28T17:40:46.550Z,39.13
2022-09-28T17:43:14.734Z,39.63
2022-09-28T17:45:45.448Z,40.57
2022-09-28T17:48:18.230Z,38.35
2022-09-28T17:50:47.994Z,38.70
2022-09-28T17:53:15.739Z,38.80
2022-09-28T17:55:43.981Z,38.80
2022-09-28T17:58:26.019Z,38.12
2022-09-28T18:00:53.771Z,38.00
2022-09-28T18:03:23.930Z,38.63
2022-09-28T18:06:03.874Z,39.75
2022-09-28T18:08:34.916Z,38.91
2022-09-28T18:11:08.708Z,38.33
2022-09-28T18:13:36.770Z,38.40
2022-09-28T18:16:17.565Z,38.36
2022-09-28T18:18:50.280Z,38.60
2022-09-28T18:21:18.040Z,38.47
2022-09-28T18:23:45.891Z,38.48
2022-09-28T18:26:19.642Z,38.31
2022-09-28T18:28:47.817Z,38.42
2022-09-28T18:31:16.374Z,38.21
2022-09-28T18:33:53.650Z,38.63
2022-09-28T18:36:36.753Z,38.45
2022-09-28T18:39:05.438Z,38.52
2022-09-28T18:41:38.471Z,38.51
2022-09-28T18:44:07.348Z,38.46
2022-09-28T18:46:39.399Z,38.39
2022-09-28T18:49:13.239Z,38.52
2022-09-28T18:51:44.585Z,38.44
2022-09-28T18:54:20.642Z,38.39
2022-09-28T18:57:07.893Z,38.40
2022-09-28T18:59:36.561Z,38.93
2022-09-28T19:02:06.324Z,38.72
2022-09-28T19:04:42.427Z,38.80
2022-09-28T19:07:10.481Z,38.63
2022-09-28T19:09:41.179Z,39.14
2022-09-28T19:12:18.910Z,39.35
2022-09-28T19:14:47.746Z,39.31
2022-09-28T19:18:10.216Z,39.05
2022-09-28T19:20:45.144Z,39.60
2022-09-28T19:23:13.542Z,39.52
2022-09-28T19:25:41.625Z,39.74
2022-09-28T19:28:11.615Z,39.72
2022-09-28T19:30:40.161Z,39.46
2022-09-28T19:33:20.321Z,39.52
2022-09-28T19:36:07.828Z,39.63
2022-09-28T19:38:38.366Z,39.90
2022-09-28T19:41:52.002Z,39.96
2022-09-28T19:44:33.033Z,39.80
2022-09-28T19:47:13.221Z,39.95
2022-09-28T19:49:43.253Z,40.60
2022-09-28T19:52:18.097Z,40.26
2022-09-28T19:55:00.404Z,40.42
2022-09-28T19:57:30.862Z,40.60
2022-09-28T20:00:03.273Z,40.19
2022-09-28T20:02:35.251Z,40.79
2022-09-28T20:05:03.879Z,40.66
2022-09-28T20:07:33.692Z,40.89
2022-09-28T20:10:03.204Z,40.74
2022-09-28T20:12:32.811Z,40.93
2022-09-28T20:15:10.342Z,40.92
2022-09-28T20:18:05.462Z,40.97
2022-09-28T20:20:43.467Z,40.99
2022-09-28T20:23:12.428Z,41.12
2022-09-28T20:25:51.048Z,41.51
2022-09-28T20:28:19.908Z,41.32
2022-09-28T20:30:53.229Z,41.71
2022-09-28T20:33:28.883Z,42.00
2022-09-28T20:35:59.269Z,42.46
2022-09-28T20:38:28.988Z,42.72
2022-09-28T20:41:03.412Z,42.66
2022-09-28T20:43:32.289Z,43.57
2022-09-28T20:46:02.723Z,44.65
2022-09-28T20:48:31.563Z,46.56
2022-09-28T20:51:18.038Z,48.86
2022-09-28T20:53:54.073Z,51.55
2022-09-28T20:56:24.909Z,53.20
2022-09-28T20:58:53.624Z,52.52
2022-09-28T21:01:24.051Z,54.11
2022-09-28T21:04:00.025Z,54.80
2022-09-28T21:06:30.091Z,55.61
2022-09-28T21:08:59.597Z,57.09
2022-09-28T21:11:29.263Z,56.28
2022-09-28T21:14:08.095Z,57.36
2022-09-28T21:16:36.325Z,57.14
2022-09-28T21:19:04.585Z,57.48
2022-09-28T21:21:34.322Z,56.64
2022-09-28T21:24:02.724Z,57.25
2022-09-28T21:26:31.668Z,57.06
2022-09-28T21:29:12.111Z,57.34
2022-09-28T21:31:47.573Z,56.64
2022-09-28T21:34:20.408Z,56.38
2022-09-28T21:36:54.767Z,56.65
2022-09-28T21:39:22.438Z,56.49
2022-09-28T21:41:49.997Z,56.46
2022-09-28T21:44:17.931Z,57.41
2022-09-28T21:46:45.715Z,57.45
2022-09-28T21:49:14.768Z,57.23
2022-09-28T21:51:42.495Z,57.28
2022-09-28T21:54:10.293Z,58.33
2022-09-28T21:56:40.478Z,58.67
2022-09-28T21:59:08.349Z,57.95
2022-09-28T22:01:44.880Z,58.92
2022-09-28T22:04:12.989Z,58.89
2022-09-28T22:06:45.145Z,58.59
2022-09-28T22:09:13.866Z,58.89
2022-09-28T22:11:43.570Z,58.52
2022-09-28T22:14:13.101Z,58.44
2022-09-28T22:16:41.532Z,58.61
2022-09-28T22:19:10.170Z,58.01
2022-09-28T22:21:38.309Z,57.93
2022-09-28T22:24:10.698Z,57.74
2022-09-28T22:26:42.968Z,57.54
2022-09-28T22:29:11.760Z,57.91
2022-09-28T22:31:41.883Z,57.90
2022-09-28T22:34:10.562Z,57.92
2022-09-28T22:36:38.288Z,58.13
2022-09-28T22:39:06.502Z,58.69
2022-09-28T22:41:34.573Z,59.35
2022-09-28T22:44:02.633Z,59.12
2022-09-28T22:46:32.862Z,59.04
2022-09-28T22:49:01.413Z,59.58
2022-09-28T22:51:30.779Z,59.78
2022-09-28T22:53:58.910Z,59.60
2022-09-28T22:56:33.561Z,60.32
2022-09-28T22:59:05.979Z,60.03
2022-09-28T23:01:35.064Z,59.66
2022-09-28T23:04:02.677Z,60.49
2022-09-28T23:06:31.289Z,59.85
2022-09-28T23:09:00.013Z,60.21
2022-09-28T23:11:28.859Z,60.47
2022-09-28T23:13:58.855Z,60.36
2022-09-28T23:16:27.559Z,60.86
2022-09-28T23:18:57.028Z,60.41
2022-09-28T23:21:27.250Z,60.76
2022-09-28T23:24:01.336Z,60.55
2022-09-28T23:26:32.219Z,61.25
2022-09-28T23:29:00.751Z,61.26
2022-09-28T23:31:31.285Z,61.67
2022-09-28T23:34:10.668Z,61.49
2022-09-28T23:36:38.642Z,61.48
2022-09-28T23:39:06.756Z,62.39
2022-09-28T23:41:36.365Z,62.44
2022-09-28T23:44:04.494Z,62.93
2022-09-28T23:46:33.312Z,63.24
2022-09-28T23:49:01.117Z,63.12
2022-09-28T23:51:29.265Z,63.59
2022-09-28T23:53:57.786Z,63.66
2022-09-28T23:56:25.653Z,63.68
2022-09-28T23:58:54.778Z,63.47
